sensor_id;sensor_type;location;lat;lon;timestamp;P1;durP1;ratioP1;P2;durP2;ratioP2
21539;SDS011;10931;52.164;5.518;2023-04-01T00:02:22;0.95;;;0.30;;
21539;SDS011;10931;52.164;5.518;2023-04-01T00:04:47;0.60;;;0.20;;
21539;SDS011;10931;52.164;5.518;2023-04-01T00:07:19;0.82;;;0.30;;
21539;SDS011;10931;52.164;5.518;2023-04-01T00:09:48;0.95;;;0.25;;
21539;SDS011;10931;52.164;5.518;2023-04-01T00:12:14;0.55;;;0.22;;
21539;SDS011;10931;52.164;5.518;2023-04-01T00:14:42;0.43;;;0.30;;
21539;SDS011;10931;52.164;5.518;2023-04-01T00:17:11;0.75;;;0.30;;
21539;SDS011;10931;52.164;5.518;2023-04-01T00:19:36;0.35;;;0.30;;
21539;SDS011;10931;52.164;5.518;2023-04-01T00:22:02;0.30;;;0.20;;
21539;SDS011;10931;52.164;5.518;2023-04-01T00:24:31;1.75;;;0.20;;
21539;SDS011;10931;52.164;5.518;2023-04-01T00:26:58;0.28;;;0.20;;
21539;SDS011;10931;52.164;5.518;2023-04-01T00:29:26;0.45;;;0.30;;
21539;SDS011;10931;52.164;5.518;2023-04-01T00:31:54;0.43;;;0.28;;
21539;SDS011;10931;52.164;5.518;2023-04-01T00:34:23;0.35;;;0.20;;
21539;SDS011;10931;52.164;5.518;2023-04-01T00:36:52;0.55;;;0.30;;
21539;SDS011;10931;52.164;5.518;2023-04-01T00:39:19;0.68;;;0.30;;
21539;SDS011;10931;52.164;5.518;2023-04-01T00:41:46;0.20;;;0.20;;
21539;SDS011;10931;52.164;5.518;2023-04-01T00:44:31;0.35;;;0.25;;
21539;SDS011;10931;52.164;5.518;2023-04-01T00:46:59;0.47;;;0.38;;
21539;SDS011;10931;52.164;5.518;2023-04-01T00:49:27;0.68;;;0.35;;
21539;SDS011;10931;52.164;5.518;2023-04-01T00:52:11;0.93;;;0.32;;
21539;SDS011;10931;52.164;5.518;2023-04-01T00:54:46;0.47;;;0.13;;
21539;SDS011;10931;52.164;5.518;2023-04-01T00:57:17;0.52;;;0.30;;
21539;SDS011;10931;52.164;5.518;2023-04-01T00:59:49;0.20;;;0.20;;
21539;SDS011;10931;52.164;5.518;2023-04-01T01:02:19;0.65;;;0.30;;
21539;SDS011;10931;52.164;5.518;2023-04-01T01:04:46;0.65;;;0.20;;
21539;SDS011;10931;52.164;5.518;2023-04-01T01:12:35;0.85;;;0.30;;
21539;SDS011;10931;52.164;5.518;2023-04-01T01:15:20;0.52;;;0.30;;
21539;SDS011;10931;52.164;5.518;2023-04-01T01:26:27;0.32;;;0.28;;
21539;SDS011;10931;52.164;5.518;2023-04-01T01:37:39;0.60;;;0.20;;
21539;SDS011;10931;52.164;5.518;2023-04-01T01:40:08;0.88;;;0.30;;
21539;SDS011;10931;52.164;5.518;2023-04-01T01:42:40;0.60;;;0.30;;
21539;SDS011;10931;52.164;5.518;2023-04-01T01:45:10;1.23;;;0.30;;
21539;SDS011;10931;52.164;5.518;2023-04-01T01:47:43;0.25;;;0.25;;
21539;SDS011;10931;52.164;5.518;2023-04-01T01:50:10;0.82;;;0.20;;
21539;SDS011;10931;52.164;5.518;2023-04-01T01:52:39;0.28;;;0.22;;
21539;SDS011;10931;52.164;5.518;2023-04-01T01:55:22;0.15;;;0.10;;
21539;SDS011;10931;52.164;5.518;2023-04-01T01:57:53;0.60;;;0.30;;
21539;SDS011;10931;52.164;5.518;2023-04-01T02:00:22;1.05;;;0.30;;
21539;SDS011;10931;52.164;5.518;2023-04-01T02:02:49;0.60;;;0.40;;
21539;SDS011;10931;52.164;5.518;2023-04-01T02:05:19;1.13;;;0.40;;
21539;SDS011;10931;52.164;5.518;2023-04-01T02:07:57;1.13;;;0.30;;
21539;SDS011;10931;52.164;5.518;2023-04-01T02:10:39;0.40;;;0.20;;
21539;SDS011;10931;52.164;5.518;2023-04-01T02:13:14;0.68;;;0.30;;
21539;SDS011;10931;52.164;5.518;2023-04-01T02:15:45;0.85;;;0.30;;
21539;SDS011;10931;52.164;5.518;2023-04-01T02:18:14;0.22;;;0.22;;
21539;SDS011;10931;52.164;5.518;2023-04-01T02:20:45;0.68;;;0.30;;
21539;SDS011;10931;52.164;5.518;2023-04-01T02:23:11;0.40;;;0.30;;
21539;SDS011;10931;52.164;5.518;2023-04-01T02:25:38;0.40;;;0.30;;
21539;SDS011;10931;52.164;5.518;2023-04-01T02:28:06;0.57;;;0.30;;
21539;SDS011;10931;52.164;5.518;2023-04-01T02:30:40;0.43;;;0.20;;
21539;SDS011;10931;52.164;5.518;2023-04-01T02:33:08;0.63;;;0.30;;
21539;SDS011;10931;52.164;5.518;2023-04-01T02:35:35;0.60;;;0.30;;
21539;SDS011;10931;52.164;5.518;2023-04-01T02:38:02;0.30;;;0.28;;
21539;SDS011;10931;52.164;5.518;2023-04-01T02:40:40;0.25;;;0.25;;
21539;SDS011;10931;52.164;5.518;2023-04-01T02:43:11;1.05;;;0.38;;
21539;SDS011;10931;52.164;5.518;2023-04-01T02:45:37;0.50;;;0.40;;
21539;SDS011;10931;52.164;5.518;2023-04-01T02:48:03;0.63;;;0.40;;
21539;SDS011;10931;52.164;5.518;2023-04-01T02:50:30;0.50;;;0.40;;
21539;SDS011;10931;52.164;5.518;2023-04-01T02:52:57;1.15;;;0.40;;
21539;SDS011;10931;52.164;5.518;2023-04-01T02:55:23;0.43;;;0.35;;
21539;SDS011;10931;52.164;5.518;2023-04-01T02:57:49;0.52;;;0.30;;
21539;SDS011;10931;52.164;5.518;2023-04-01T03:00:17;0.55;;;0.30;;
21539;SDS011;10931;52.164;5.518;2023-04-01T03:02:43;0.52;;;0.20;;
21539;SDS011;10931;52.164;5.518;2023-04-01T03:05:09;1.02;;;0.35;;
21539;SDS011;10931;52.164;5.518;2023-04-01T03:07:38;0.77;;;0.30;;
21539;SDS011;10931;52.164;5.518;2023-04-01T03:10:04;0.30;;;0.30;;
21539;SDS011;10931;52.164;5.518;2023-04-01T03:12:30;0.30;;;0.28;;
21539;SDS011;10931;52.164;5.518;2023-04-01T03:14:59;0.55;;;0.20;;
21539;SDS011;10931;52.164;5.518;2023-04-01T03:17:24;0.20;;;0.20;;
21539;SDS011;10931;52.164;5.518;2023-04-01T03:19:53;1.73;;;0.30;;
21539;SDS011;10931;52.164;5.518;2023-04-01T03:22:28;0.65;;;0.40;;
21539;SDS011;10931;52.164;5.518;2023-04-01T03:24:53;0.20;;;0.20;;
21539;SDS011;10931;52.164;5.518;2023-04-01T03:27:19;0.20;;;0.20;;
21539;SDS011;10931;52.164;5.518;2023-04-01T03:29:45;0.35;;;0.20;;
21539;SDS011;10931;52.164;5.518;2023-04-01T03:32:10;1.10;;;0.40;;
21539;SDS011;10931;52.164;5.518;2023-04-01T03:34:36;0.20;;;0.20;;
21539;SDS011;10931;52.164;5.518;2023-04-01T03:37:02;0.20;;;0.20;;
21539;SDS011;10931;52.164;5.518;2023-04-01T03:39:31;0.60;;;0.30;;
21539;SDS011;10931;52.164;5.518;2023-04-01T03:41:56;0.60;;;0.30;;
21539;SDS011;10931;52.164;5.518;2023-04-01T03:44:24;0.43;;;0.30;;
21539;SDS011;10931;52.164;5.518;2023-04-01T03:46:50;0.32;;;0.17;;
21539;SDS011;10931;52.164;5.518;2023-04-01T03:49:16;0.50;;;0.28;;
21539;SDS011;10931;52.164;5.518;2023-04-01T03:51:42;0.63;;;0.35;;
21539;SDS011;10931;52.164;5.518;2023-04-01T03:54:08;1.05;;;0.30;;
21539;SDS011;10931;52.164;5.518;2023-04-01T03:56:35;0.22;;;0.22;;
21539;SDS011;10931;52.164;5.518;2023-04-01T03:59:03;0.30;;;0.20;;
21539;SDS011;10931;52.164;5.518;2023-04-01T04:01:30;0.80;;;0.30;;
21539;SDS011;10931;52.164;5.518;2023-04-01T04:03:56;0.20;;;0.20;;
21539;SDS011;10931;52.164;5.518;2023-04-01T04:06:23;0.95;;;0.30;;
21539;SDS011;10931;52.164;5.518;2023-04-01T04:08:49;0.93;;;0.40;;
21539;SDS011;10931;52.164;5.518;2023-04-01T04:11:15;0.22;;;0.20;;
21539;SDS011;10931;52.164;5.518;2023-04-01T04:13:42;0.20;;;0.20;;
21539;SDS011;10931;52.164;5.518;2023-04-01T04:16:08;0.40;;;0.30;;
21539;SDS011;10931;52.164;5.518;2023-04-01T04:18:45;0.20;;;0.20;;
21539;SDS011;10931;52.164;5.518;2023-04-01T04:21:11;0.20;;;0.20;;
21539;SDS011;10931;52.164;5.518;2023-04-01T04:23:39;0.30;;;0.30;;
21539;SDS011;10931;52.164;5.518;2023-04-01T04:26:06;0.45;;;0.30;;
21539;SDS011;10931;52.164;5.518;2023-04-01T04:28:34;0.50;;;0.30;;
21539;SDS011;10931;52.164;5.518;2023-04-01T04:31:00;0.38;;;0.30;;
21539;SDS011;10931;52.164;5.518;2023-04-01T04:33:30;0.60;;;0.40;;
21539;SDS011;10931;52.164;5.518;2023-04-01T04:35:59;0.35;;;0.28;;
21539;SDS011;10931;52.164;5.518;2023-04-01T04:38:25;0.95;;;0.38;;
21539;SDS011;10931;52.164;5.518;2023-04-01T04:40:54;0.77;;;0.30;;
21539;SDS011;10931;52.164;5.518;2023-04-01T04:43:22;0.35;;;0.30;;
21539;SDS011;10931;52.164;5.518;2023-04-01T04:45:48;0.63;;;0.25;;
21539;SDS011;10931;52.164;5.518;2023-04-01T04:48:15;0.40;;;0.30;;
21539;SDS011;10931;52.164;5.518;2023-04-01T04:50:47;0.50;;;0.40;;
21539;SDS011;10931;52.164;5.518;2023-04-01T04:53:15;0.47;;;0.28;;
21539;SDS011;10931;52.164;5.518;2023-04-01T04:55:45;0.40;;;0.28;;
21539;SDS011;10931;52.164;5.518;2023-04-01T04:58:14;0.38;;;0.30;;
21539;SDS011;10931;52.164;5.518;2023-04-01T05:00:41;0.30;;;0.30;;
21539;SDS011;10931;52.164;5.518;2023-04-01T05:03:10;0.93;;;0.40;;
21539;SDS011;10931;52.164;5.518;2023-04-01T05:05:38;0.63;;;0.32;;
21539;SDS011;10931;52.164;5.518;2023-04-01T05:08:04;0.47;;;0.30;;
21539;SDS011;10931;52.164;5.518;2023-04-01T05:10:31;0.20;;;0.20;;
21539;SDS011;10931;52.164;5.518;2023-04-01T05:12:57;0.90;;;0.40;;
21539;SDS011;10931;52.164;5.518;2023-04-01T05:15:23;0.30;;;0.30;;
21539;SDS011;10931;52.164;5.518;2023-04-01T05:17:49;0.47;;;0.30;;
21539;SDS011;10931;52.164;5.518;2023-04-01T05:20:15;0.38;;;0.17;;
21539;SDS011;10931;52.164;5.518;2023-04-01T05:22:41;0.63;;;0.30;;
21539;SDS011;10931;52.164;5.518;2023-04-01T05:25:15;0.30;;;0.30;;
21539;SDS011;10931;52.164;5.518;2023-04-01T05:27:43;0.25;;;0.22;;
21539;SDS011;10931;52.164;5.518;2023-04-01T05:30:09;0.20;;;0.20;;
21539;SDS011;10931;52.164;5.518;2023-04-01T05:32:35;0.30;;;0.20;;
21539;SDS011;10931;52.164;5.518;2023-04-01T05:35:14;0.30;;;0.30;;
21539;SDS011;10931;52.164;5.518;2023-04-01T05:37:40;0.40;;;0.30;;
21539;SDS011;10931;52.164;5.518;2023-04-01T05:40:21;0.35;;;0.32;;
21539;SDS011;10931;52.164;5.518;2023-04-01T05:42:50;0.63;;;0.35;;
21539;SDS011;10931;52.164;5.518;2023-04-01T05:45:16;0.20;;;0.20;;
21539;SDS011;10931;52.164;5.518;2023-04-01T05:47:44;0.40;;;0.30;;
21539;SDS011;10931;52.164;5.518;2023-04-01T05:50:13;0.30;;;0.20;;
21539;SDS011;10931;52.164;5.518;2023-04-01T05:52:44;0.30;;;0.22;;
21539;SDS011;10931;52.164;5.518;2023-04-01T05:55:12;0.40;;;0.20;;
21539;SDS011;10931;52.164;5.518;2023-04-01T05:57:46;0.10;;;0.10;;
21539;SDS011;10931;52.164;5.518;2023-04-01T06:00:13;0.30;;;0.30;;
21539;SDS011;10931;52.164;5.518;2023-04-01T06:02:47;0.38;;;0.22;;
21539;SDS011;10931;52.164;5.518;2023-04-01T06:05:14;0.30;;;0.20;;
21539;SDS011;10931;52.164;5.518;2023-04-01T06:07:45;0.30;;;0.20;;
21539;SDS011;10931;52.164;5.518;2023-04-01T06:10:16;0.30;;;0.28;;
21539;SDS011;10931;52.164;5.518;2023-04-01T06:15:45;0.43;;;0.30;;
21539;SDS011;10931;52.164;5.518;2023-04-01T06:33:31;0.30;;;0.30;;
21539;SDS011;10931;52.164;5.518;2023-04-01T06:36:26;0.30;;;0.30;;
21539;SDS011;10931;52.164;5.518;2023-04-01T06:42:26;0.15;;;0.15;;
21539;SDS011;10931;52.164;5.518;2023-04-01T06:45:25;0.17;;;0.13;;
21539;SDS011;10931;52.164;5.518;2023-04-01T06:53:57;0.98;;;0.45;;
21539;SDS011;10931;52.164;5.518;2023-04-01T06:56:38;0.20;;;0.20;;
21539;SDS011;10931;52.164;5.518;2023-04-01T07:04:47;0.20;;;0.20;;
21539;SDS011;10931;52.164;5.518;2023-04-01T07:10:34;0.20;;;0.20;;
21539;SDS011;10931;52.164;5.518;2023-04-01T07:13:26;0.90;;;0.20;;
21539;SDS011;10931;52.164;5.518;2023-04-01T07:15:59;0.20;;;0.20;;
21539;SDS011;10931;52.164;5.518;2023-04-01T07:18:50;0.10;;;0.10;;
21539;SDS011;10931;52.164;5.518;2023-04-01T07:24:37;0.20;;;0.20;;
21539;SDS011;10931;52.164;5.518;2023-04-01T07:27:17;0.20;;;0.20;;
21539;SDS011;10931;52.164;5.518;2023-04-01T07:29:46;0.20;;;0.20;;
21539;SDS011;10931;52.164;5.518;2023-04-01T07:40:45;0.30;;;0.20;;
21539;SDS011;10931;52.164;5.518;2023-04-01T07:48:57;0.30;;;0.30;;
21539;SDS011;10931;52.164;5.518;2023-04-01T08:00:22;0.10;;;0.10;;
21539;SDS011;10931;52.164;5.518;2023-04-01T08:08:23;0.43;;;0.20;;
21539;SDS011;10931;52.164;5.518;2023-04-01T08:17:07;0.20;;;0.20;;
21539;SDS011;10931;52.164;5.518;2023-04-01T08:26:42;0.10;;;0.10;;
21539;SDS011;10931;52.164;5.518;2023-04-01T08:32:34;0.30;;;0.20;;
21539;SDS011;10931;52.164;5.518;2023-04-01T08:35:11;0.60;;;0.20;;
21539;SDS011;10931;52.164;5.518;2023-04-01T08:57:59;0.13;;;0.10;;
21539;SDS011;10931;52.164;5.518;2023-04-01T09:00:57;0.17;;;0.10;;
21539;SDS011;10931;52.164;5.518;2023-04-01T09:03:42;0.30;;;0.20;;
21539;SDS011;10931;52.164;5.518;2023-04-01T09:43:25;0.55;;;0.30;;
21539;SDS011;10931;52.164;5.518;2023-04-01T09:51:49;0.40;;;0.30;;
21539;SDS011;10931;52.164;5.518;2023-04-01T10:00:40;0.20;;;0.20;;
21539;SDS011;10931;52.164;5.518;2023-04-01T10:09:47;0.25;;;0.25;;
21539;SDS011;10931;52.164;5.518;2023-04-01T10:21:19;0.30;;;0.30;;
21539;SDS011;10931;52.164;5.518;2023-04-01T10:29:51;0.65;;;0.30;;
21539;SDS011;10931;52.164;5.518;2023-04-01T10:35:20;0.55;;;0.30;;
21539;SDS011;10931;52.164;5.518;2023-04-01T10:49:29;0.20;;;0.20;;
21539;SDS011;10931;52.164;5.518;2023-04-01T11:13:06;0.60;;;0.30;;
21539;SDS011;10931;52.164;5.518;2023-04-01T11:34:02;0.68;;;0.30;;
21539;SDS011;10931;52.164;5.518;2023-04-01T11:45:57;0.38;;;0.30;;
21539;SDS011;10931;52.164;5.518;2023-04-01T11:49:35;0.47;;;0.32;;
21539;SDS011;10931;52.164;5.518;2023-04-01T11:58:18;0.30;;;0.30;;
21539;SDS011;10931;52.164;5.518;2023-04-01T12:12:12;0.80;;;0.40;;
21539;SDS011;10931;52.164;5.518;2023-04-01T12:15:20;0.20;;;0.20;;
21539;SDS011;10931;52.164;5.518;2023-04-01T12:20:47;0.80;;;0.20;;
21539;SDS011;10931;52.164;5.518;2023-04-01T12:25:56;0.40;;;0.40;;
21539;SDS011;10931;52.164;5.518;2023-04-01T12:31:19;0.50;;;0.40;;
21539;SDS011;10931;52.164;5.518;2023-04-01T12:55:35;1.60;;;1.15;;
21539;SDS011;10931;52.164;5.518;2023-04-01T13:16:35;1.60;;;1.10;;
21539;SDS011;10931;52.164;5.518;2023-04-01T13:19:14;1.40;;;0.88;;
21539;SDS011;10931;52.164;5.518;2023-04-01T13:22:15;1.00;;;0.75;;
21539;SDS011;10931;52.164;5.518;2023-04-01T13:28:12;0.70;;;0.68;;
21539;SDS011;10931;52.164;5.518;2023-04-01T13:31:03;2.00;;;1.05;;
21539;SDS011;10931;52.164;5.518;2023-04-01T13:43:15;0.88;;;0.68;;
21539;SDS011;10931;52.164;5.518;2023-04-01T14:04:33;1.70;;;1.00;;
21539;SDS011;10931;52.164;5.518;2023-04-01T14:07:49;2.10;;;1.00;;
21539;SDS011;10931;52.164;5.518;2023-04-01T14:10:27;1.00;;;0.80;;
21539;SDS011;10931;52.164;5.518;2023-04-01T14:13:09;1.40;;;0.93;;
21539;SDS011;10931;52.164;5.518;2023-04-01T14:18:45;0.93;;;0.73;;
21539;SDS011;10931;52.164;5.518;2023-04-01T14:24:41;1.05;;;0.80;;
21539;SDS011;10931;52.164;5.518;2023-04-01T14:27:35;2.58;;;1.00;;
21539;SDS011;10931;52.164;5.518;2023-04-01T14:36:08;1.42;;;1.15;;
21539;SDS011;10931;52.164;5.518;2023-04-01T14:42:03;1.48;;;1.13;;
21539;SDS011;10931;52.164;5.518;2023-04-01T14:44:45;1.77;;;1.30;;
21539;SDS011;10931;52.164;5.518;2023-04-01T14:47:56;1.10;;;0.88;;
21539;SDS011;10931;52.164;5.518;2023-04-01T14:50:45;2.17;;;1.42;;
21539;SDS011;10931;52.164;5.518;2023-04-01T14:58:19;1.15;;;0.95;;
21539;SDS011;10931;52.164;5.518;2023-04-01T15:03:29;1.38;;;1.08;;
21539;SDS011;10931;52.164;5.518;2023-04-01T15:17:42;1.67;;;1.33;;
21539;SDS011;10931;52.164;5.518;2023-04-01T15:32:17;1.67;;;1.42;;
21539;SDS011;10931;52.164;5.518;2023-04-01T15:43:26;1.50;;;1.38;;
21539;SDS011;10931;52.164;5.518;2023-04-01T15:48:57;2.65;;;1.67;;
21539;SDS011;10931;52.164;5.518;2023-04-01T16:00:34;2.30;;;1.50;;
21539;SDS011;10931;52.164;5.518;2023-04-01T16:03:26;2.63;;;1.70;;
21539;SDS011;10931;52.164;5.518;2023-04-01T16:12:24;2.70;;;1.75;;
21539;SDS011;10931;52.164;5.518;2023-04-01T16:14:59;2.28;;;1.63;;
21539;SDS011;10931;52.164;5.518;2023-04-01T16:18:24;1.60;;;1.10;;
21539;SDS011;10931;52.164;5.518;2023-04-01T16:20:51;1.95;;;1.30;;
21539;SDS011;10931;52.164;5.518;2023-04-01T16:26:57;1.65;;;1.45;;
21539;SDS011;10931;52.164;5.518;2023-04-01T16:32:31;2.05;;;1.60;;
21539;SDS011;10931;52.164;5.518;2023-04-01T16:35:50;1.60;;;1.30;;
21539;SDS011;10931;52.164;5.518;2023-04-01T16:41:16;2.25;;;1.50;;
21539;SDS011;10931;52.164;5.518;2023-04-01T16:43:52;1.23;;;1.13;;
21539;SDS011;10931;52.164;5.518;2023-04-01T16:46:55;2.25;;;1.25;;
21539;SDS011;10931;52.164;5.518;2023-04-01T16:49:30;1.90;;;1.27;;
21539;SDS011;10931;52.164;5.518;2023-04-01T16:52:15;1.60;;;1.27;;
21539;SDS011;10931;52.164;5.518;2023-04-01T16:54:47;2.38;;;1.60;;
21539;SDS011;10931;52.164;5.518;2023-04-01T16:57:30;2.13;;;1.17;;
21539;SDS011;10931;52.164;5.518;2023-04-01T17:00:25;1.63;;;1.17;;
21539;SDS011;10931;52.164;5.518;2023-04-01T17:03:16;1.75;;;1.27;;
21539;SDS011;10931;52.164;5.518;2023-04-01T17:06:16;1.80;;;1.20;;
21539;SDS011;10931;52.164;5.518;2023-04-01T17:11:39;2.33;;;1.38;;
21539;SDS011;10931;52.164;5.518;2023-04-01T17:22:38;2.20;;;1.33;;
21539;SDS011;10931;52.164;5.518;2023-04-01T17:40:11;1.85;;;1.20;;
21539;SDS011;10931;52.164;5.518;2023-04-01T17:46:11;1.25;;;1.05;;
21539;SDS011;10931;52.164;5.518;2023-04-01T17:49:03;1.48;;;1.17;;
21539;SDS011;10931;52.164;5.518;2023-04-01T17:51:40;1.75;;;1.17;;
21539;SDS011;10931;52.164;5.518;2023-04-01T18:00:32;1.90;;;1.20;;
21539;SDS011;10931;52.164;5.518;2023-04-01T18:10:40;2.28;;;0.70;;
21539;SDS011;10931;52.164;5.518;2023-04-01T18:19:56;1.05;;;0.80;;
21539;SDS011;10931;52.164;5.518;2023-04-01T18:23:06;1.35;;;0.93;;
21539;SDS011;10931;52.164;5.518;2023-04-01T18:26:03;1.10;;;0.90;;
21539;SDS011;10931;52.164;5.518;2023-04-01T18:31:37;2.30;;;0.95;;
21539;SDS011;10931;52.164;5.518;2023-04-01T18:42:45;1.88;;;1.20;;
21539;SDS011;10931;52.164;5.518;2023-04-01T18:46:19;1.63;;;1.17;;
21539;SDS011;10931;52.164;5.518;2023-04-01T18:48:44;1.48;;;0.88;;
21539;SDS011;10931;52.164;5.518;2023-04-01T19:00:27;1.15;;;1.00;;
21539;SDS011;10931;52.164;5.518;2023-04-01T19:05:59;1.00;;;0.80;;
21539;SDS011;10931;52.164;5.518;2023-04-01T19:08:41;1.20;;;0.93;;
21539;SDS011;10931;52.164;5.518;2023-04-01T19:17:23;1.20;;;0.90;;
21539;SDS011;10931;52.164;5.518;2023-04-01T19:35:32;0.93;;;0.82;;
21539;SDS011;10931;52.164;5.518;2023-04-01T19:38:21;0.93;;;0.75;;
21539;SDS011;10931;52.164;5.518;2023-04-01T19:44:12;1.25;;;0.73;;
21539;SDS011;10931;52.164;5.518;2023-04-01T19:50:24;1.27;;;0.80;;
21539;SDS011;10931;52.164;5.518;2023-04-01T19:53:14;2.28;;;0.90;;
21539;SDS011;10931;52.164;5.518;2023-04-01T19:55:49;0.70;;;0.70;;
21539;SDS011;10931;52.164;5.518;2023-04-01T20:04:25;1.10;;;0.70;;
21539;SDS011;10931;52.164;5.518;2023-04-01T20:06:57;0.90;;;0.70;;
21539;SDS011;10931;52.164;5.518;2023-04-01T20:15:36;1.00;;;0.90;;
21539;SDS011;10931;52.164;5.518;2023-04-01T20:18:25;0.90;;;0.73;;
21539;SDS011;10931;52.164;5.518;2023-04-01T20:23:56;0.85;;;0.77;;
21539;SDS011;10931;52.164;5.518;2023-04-01T20:26:36;1.58;;;0.73;;
21539;SDS011;10931;52.164;5.518;2023-04-01T20:32:41;0.60;;;0.60;;
21539;SDS011;10931;52.164;5.518;2023-04-01T20:44:21;0.75;;;0.75;;
21539;SDS011;10931;52.164;5.518;2023-04-01T21:03:31;1.15;;;0.95;;
21539;SDS011;10931;52.164;5.518;2023-04-01T21:09:28;1.42;;;0.80;;
21539;SDS011;10931;52.164;5.518;2023-04-01T21:15:12;0.98;;;0.75;;
21539;SDS011;10931;52.164;5.518;2023-04-01T21:36:41;1.15;;;0.80;;
21539;SDS011;10931;52.164;5.518;2023-04-01T21:42:14;0.80;;;0.70;;
21539;SDS011;10931;52.164;5.518;2023-04-01T21:45:11;0.90;;;0.80;;
21539;SDS011;10931;52.164;5.518;2023-04-01T21:53:28;0.98;;;0.77;;
21539;SDS011;10931;52.164;5.518;2023-04-01T22:10:45;1.13;;;0.80;;
21539;SDS011;10931;52.164;5.518;2023-04-01T22:13:29;0.80;;;0.80;;
21539;SDS011;10931;52.164;5.518;2023-04-01T22:18:40;0.90;;;0.70;;
21539;SDS011;10931;52.164;5.518;2023-04-01T22:26:53;0.82;;;0.80;;
21539;SDS011;10931;52.164;5.518;2023-04-01T22:29:24;0.82;;;0.80;;
21539;SDS011;10931;52.164;5.518;2023-04-01T22:32:16;1.08;;;0.77;;
21539;SDS011;10931;52.164;5.518;2023-04-01T22:34:49;0.75;;;0.70;;
21539;SDS011;10931;52.164;5.518;2023-04-01T22:37:29;0.82;;;0.60;;
21539;SDS011;10931;52.164;5.518;2023-04-01T22:40:39;1.17;;;0.98;;
21539;SDS011;10931;52.164;5.518;2023-04-01T22:43:13;1.15;;;0.80;;
21539;SDS011;10931;52.164;5.518;2023-04-01T22:48:39;0.70;;;0.60;;
21539;SDS011;10931;52.164;5.518;2023-04-01T22:56:28;0.98;;;0.80;;
21539;SDS011;10931;52.164;5.518;2023-04-01T22:59:16;0.80;;;0.60;;
21539;SDS011;10931;52.164;5.518;2023-04-01T23:02:11;0.65;;;0.57;;
21539;SDS011;10931;52.164;5.518;2023-04-01T23:04:47;0.70;;;0.60;;
21539;SDS011;10931;52.164;5.518;2023-04-01T23:10:25;0.90;;;0.60;;
21539;SDS011;10931;52.164;5.518;2023-04-01T23:13:10;0.93;;;0.63;;
21539;SDS011;10931;52.164;5.518;2023-04-01T23:15:41;1.77;;;0.95;;
21539;SDS011;10931;52.164;5.518;2023-04-01T23:18:12;0.70;;;0.68;;
21539;SDS011;10931;52.164;5.518;2023-04-01T23:29:19;0.77;;;0.73;;
21539;SDS011;10931;52.164;5.518;2023-04-01T23:31:47;0.73;;;0.65;;
21539;SDS011;10931;52.164;5.518;2023-04-01T23:34:22;1.05;;;0.80;;
21539;SDS011;10931;52.164;5.518;2023-04-01T23:36:52;0.80;;;0.70;;
21539;SDS011;10931;52.164;5.518;2023-04-01T23:39:21;1.08;;;0.70;;
21539;SDS011;10931;52.164;5.518;2023-04-01T23:41:51;0.70;;;0.70;;
21539;SDS011;10931;52.164;5.518;2023-04-01T23:44:19;0.77;;;0.65;;
21539;SDS011;10931;52.164;5.518;2023-04-01T23:46:46;0.50;;;0.50;;
21539;SDS011;10931;52.164;5.518;2023-04-01T23:49:16;0.60;;;0.60;;
21539;SDS011;10931;52.164;5.518;2023-04-01T23:54:48;1.33;;;0.70;;
21539;SDS011;10931;52.164;5.518;2023-04-01T23:57:29;0.65;;;0.50;;
